sensor_id;sensor_type;location;lat;lon;timestamp;P1;durP1;ratioP1;P2;durP2;ratioP2
6825;SDS011;3451;52.476;13.316;2022-12-24T00:02:13;12.17;;;7.90;;
6825;SDS011;3451;52.476;13.316;2022-12-24T00:04:39;12.10;;;7.53;;
6825;SDS011;3451;52.476;13.316;2022-12-24T00:07:06;11.63;;;7.33;;
6825;SDS011;3451;52.476;13.316;2022-12-24T00:09:32;10.47;;;7.33;;
6825;SDS011;3451;52.476;13.316;2022-12-24T00:11:58;10.40;;;6.93;;
6825;SDS011;3451;52.476;13.316;2022-12-24T00:14:25;10.30;;;6.27;;
6825;SDS011;3451;52.476;13.316;2022-12-24T00:16:51;10.47;;;6.23;;
6825;SDS011;3451;52.476;13.316;2022-12-24T00:19:18;10.97;;;6.63;;
6825;SDS011;3451;52.476;13.316;2022-12-24T00:21:44;10.23;;;6.33;;
6825;SDS011;3451;52.476;13.316;2022-12-24T00:24:10;9.67;;;6.40;;
6825;SDS011;3451;52.476;13.316;2022-12-24T00:26:36;10.70;;;6.10;;
6825;SDS011;3451;52.476;13.316;2022-12-24T00:29:03;9.43;;;5.93;;
6825;SDS011;3451;52.476;13.316;2022-12-24T00:31:29;10.13;;;6.07;;
6825;SDS011;3451;52.476;13.316;2022-12-24T00:33:55;9.20;;;5.90;;
6825;SDS011;3451;52.476;13.316;2022-12-24T00:36:22;9.10;;;6.07;;
6825;SDS011;3451;52.476;13.316;2022-12-24T00:38:48;8.43;;;5.90;;
6825;SDS011;3451;52.476;13.316;2022-12-24T00:41:14;10.13;;;5.60;;
6825;SDS011;3451;52.476;13.316;2022-12-24T00:43:55;8.47;;;6.00;;
6825;SDS011;3451;52.476;13.316;2022-12-24T00:46:22;9.53;;;5.67;;
6825;SDS011;3451;52.476;13.316;2022-12-24T00:48:48;10.43;;;6.07;;
6825;SDS011;3451;52.476;13.316;2022-12-24T00:51:15;10.70;;;6.07;;
6825;SDS011;3451;52.476;13.316;2022-12-24T00:53:41;10.87;;;6.27;;
6825;SDS011;3451;52.476;13.316;2022-12-24T00:56:08;8.73;;;5.60;;
6825;SDS011;3451;52.476;13.316;2022-12-24T00:58:34;8.30;;;5.90;;
6825;SDS011;3451;52.476;13.316;2022-12-24T01:01:01;8.30;;;5.73;;
6825;SDS011;3451;52.476;13.316;2022-12-24T01:03:27;10.53;;;5.63;;
6825;SDS011;3451;52.476;13.316;2022-12-24T01:06:13;9.13;;;5.90;;
6825;SDS011;3451;52.476;13.316;2022-12-24T01:08:40;9.77;;;6.10;;
6825;SDS011;3451;52.476;13.316;2022-12-24T01:11:07;8.67;;;5.80;;
6825;SDS011;3451;52.476;13.316;2022-12-24T01:13:34;9.47;;;6.30;;
6825;SDS011;3451;52.476;13.316;2022-12-24T01:16:00;10.03;;;5.70;;
6825;SDS011;3451;52.476;13.316;2022-12-24T01:18:27;8.93;;;6.10;;
6825;SDS011;3451;52.476;13.316;2022-12-24T01:21:01;12.43;;;6.50;;
6825;SDS011;3451;52.476;13.316;2022-12-24T01:23:28;9.00;;;6.17;;
6825;SDS011;3451;52.476;13.316;2022-12-24T01:25:59;8.67;;;5.87;;
6825;SDS011;3451;52.476;13.316;2022-12-24T01:28:25;7.87;;;5.67;;
6825;SDS011;3451;52.476;13.316;2022-12-24T01:30:53;9.53;;;5.77;;
6825;SDS011;3451;52.476;13.316;2022-12-24T01:33:19;8.33;;;5.53;;
6825;SDS011;3451;52.476;13.316;2022-12-24T01:35:45;9.20;;;6.37;;
6825;SDS011;3451;52.476;13.316;2022-12-24T01:38:12;9.10;;;5.63;;
6825;SDS011;3451;52.476;13.316;2022-12-24T01:40:39;8.43;;;5.77;;
6825;SDS011;3451;52.476;13.316;2022-12-24T01:43:24;9.03;;;5.63;;
6825;SDS011;3451;52.476;13.316;2022-12-24T01:45:57;8.67;;;5.27;;
6825;SDS011;3451;52.476;13.316;2022-12-24T01:48:41;7.70;;;5.60;;
6825;SDS011;3451;52.476;13.316;2022-12-24T01:53:41;9.10;;;5.63;;
6825;SDS011;3451;52.476;13.316;2022-12-24T01:56:08;8.97;;;5.30;;
6825;SDS011;3451;52.476;13.316;2022-12-24T01:58:35;7.17;;;5.60;;
6825;SDS011;3451;52.476;13.316;2022-12-24T02:01:02;9.43;;;5.90;;
6825;SDS011;3451;52.476;13.316;2022-12-24T02:03:28;8.73;;;5.90;;
6825;SDS011;3451;52.476;13.316;2022-12-24T02:05:55;9.90;;;5.73;;
6825;SDS011;3451;52.476;13.316;2022-12-24T02:08:23;9.17;;;6.03;;
6825;SDS011;3451;52.476;13.316;2022-12-24T02:10:50;9.40;;;6.43;;
6825;SDS011;3451;52.476;13.316;2022-12-24T02:13:18;9.80;;;6.30;;
6825;SDS011;3451;52.476;13.316;2022-12-24T02:15:50;10.40;;;6.57;;
6825;SDS011;3451;52.476;13.316;2022-12-24T02:18:23;11.10;;;6.37;;
6825;SDS011;3451;52.476;13.316;2022-12-24T02:21:17;10.77;;;6.67;;
6825;SDS011;3451;52.476;13.316;2022-12-24T02:23:52;8.83;;;5.63;;
6825;SDS011;3451;52.476;13.316;2022-12-24T02:26:26;9.77;;;6.93;;
6825;SDS011;3451;52.476;13.316;2022-12-24T02:29:03;8.77;;;6.23;;
6825;SDS011;3451;52.476;13.316;2022-12-24T02:31:43;9.57;;;6.37;;
6825;SDS011;3451;52.476;13.316;2022-12-24T02:36:57;10.93;;;7.30;;
6825;SDS011;3451;52.476;13.316;2022-12-24T02:39:26;12.20;;;7.30;;
6825;SDS011;3451;52.476;13.316;2022-12-24T02:41:54;10.87;;;7.63;;
6825;SDS011;3451;52.476;13.316;2022-12-24T02:50:13;11.50;;;7.43;;
6825;SDS011;3451;52.476;13.316;2022-12-24T02:52:40;10.13;;;7.33;;
6825;SDS011;3451;52.476;13.316;2022-12-24T02:58:00;12.27;;;7.23;;
6825;SDS011;3451;52.476;13.316;2022-12-24T03:00:33;11.27;;;7.83;;
6825;SDS011;3451;52.476;13.316;2022-12-24T03:05:35;12.73;;;8.10;;
6825;SDS011;3451;52.476;13.316;2022-12-24T03:08:05;11.77;;;7.90;;
6825;SDS011;3451;52.476;13.316;2022-12-24T03:13:06;14.73;;;7.83;;
6825;SDS011;3451;52.476;13.316;2022-12-24T03:15:32;12.60;;;8.20;;
6825;SDS011;3451;52.476;13.316;2022-12-24T03:18:00;11.83;;;7.30;;
6825;SDS011;3451;52.476;13.316;2022-12-24T03:20:30;13.00;;;7.50;;
6825;SDS011;3451;52.476;13.316;2022-12-24T03:22:58;12.93;;;7.50;;
6825;SDS011;3451;52.476;13.316;2022-12-24T03:25:24;13.47;;;8.20;;
6825;SDS011;3451;52.476;13.316;2022-12-24T03:27:51;12.53;;;8.20;;
6825;SDS011;3451;52.476;13.316;2022-12-24T03:30:19;12.17;;;7.93;;
6825;SDS011;3451;52.476;13.316;2022-12-24T03:32:45;13.27;;;8.43;;
6825;SDS011;3451;52.476;13.316;2022-12-24T03:35:12;13.80;;;8.37;;
6825;SDS011;3451;52.476;13.316;2022-12-24T03:37:38;12.03;;;7.53;;
6825;SDS011;3451;52.476;13.316;2022-12-24T03:40:05;12.33;;;7.43;;
6825;SDS011;3451;52.476;13.316;2022-12-24T03:42:31;13.53;;;8.60;;
6825;SDS011;3451;52.476;13.316;2022-12-24T03:44:58;12.33;;;8.57;;
6825;SDS011;3451;52.476;13.316;2022-12-24T03:47:24;12.23;;;8.10;;
6825;SDS011;3451;52.476;13.316;2022-12-24T03:49:50;12.43;;;8.33;;
6825;SDS011;3451;52.476;13.316;2022-12-24T03:52:17;13.80;;;8.93;;
6825;SDS011;3451;52.476;13.316;2022-12-24T03:54:43;14.40;;;8.63;;
6825;SDS011;3451;52.476;13.316;2022-12-24T03:57:09;11.80;;;8.23;;
6825;SDS011;3451;52.476;13.316;2022-12-24T03:59:35;13.30;;;8.63;;
6825;SDS011;3451;52.476;13.316;2022-12-24T04:02:01;11.30;;;8.10;;
6825;SDS011;3451;52.476;13.316;2022-12-24T04:04:28;13.23;;;8.70;;
6825;SDS011;3451;52.476;13.316;2022-12-24T04:06:54;13.17;;;8.30;;
6825;SDS011;3451;52.476;13.316;2022-12-24T04:09:20;13.50;;;8.40;;
6825;SDS011;3451;52.476;13.316;2022-12-24T04:11:47;14.17;;;9.03;;
6825;SDS011;3451;52.476;13.316;2022-12-24T04:14:14;13.60;;;8.73;;
6825;SDS011;3451;52.476;13.316;2022-12-24T04:16:40;14.63;;;9.03;;
6825;SDS011;3451;52.476;13.316;2022-12-24T04:19:07;15.03;;;9.37;;
6825;SDS011;3451;52.476;13.316;2022-12-24T04:21:33;14.20;;;9.03;;
6825;SDS011;3451;52.476;13.316;2022-12-24T04:23:59;14.37;;;9.30;;
6825;SDS011;3451;52.476;13.316;2022-12-24T04:26:25;13.27;;;8.80;;
6825;SDS011;3451;52.476;13.316;2022-12-24T04:28:52;14.77;;;10.10;;
6825;SDS011;3451;52.476;13.316;2022-12-24T04:31:18;13.50;;;9.23;;
6825;SDS011;3451;52.476;13.316;2022-12-24T04:33:44;14.10;;;8.90;;
6825;SDS011;3451;52.476;13.316;2022-12-24T04:36:12;14.00;;;9.23;;
6825;SDS011;3451;52.476;13.316;2022-12-24T04:38:39;14.23;;;8.80;;
6825;SDS011;3451;52.476;13.316;2022-12-24T04:41:06;12.10;;;8.23;;
6825;SDS011;3451;52.476;13.316;2022-12-24T04:43:33;15.60;;;8.90;;
6825;SDS011;3451;52.476;13.316;2022-12-24T04:46:06;12.73;;;8.37;;
6825;SDS011;3451;52.476;13.316;2022-12-24T04:48:33;16.00;;;9.10;;
6825;SDS011;3451;52.476;13.316;2022-12-24T04:51:00;12.80;;;8.87;;
6825;SDS011;3451;52.476;13.316;2022-12-24T04:53:26;15.80;;;9.07;;
6825;SDS011;3451;52.476;13.316;2022-12-24T04:55:52;12.60;;;8.57;;
6825;SDS011;3451;52.476;13.316;2022-12-24T04:58:18;13.80;;;8.43;;
6825;SDS011;3451;52.476;13.316;2022-12-24T05:00:45;16.47;;;9.53;;
6825;SDS011;3451;52.476;13.316;2022-12-24T05:03:11;13.83;;;9.00;;
6825;SDS011;3451;52.476;13.316;2022-12-24T05:05:37;13.43;;;9.00;;
6825;SDS011;3451;52.476;13.316;2022-12-24T05:08:03;13.37;;;9.40;;
6825;SDS011;3451;52.476;13.316;2022-12-24T05:10:30;12.93;;;8.70;;
6825;SDS011;3451;52.476;13.316;2022-12-24T05:12:56;13.87;;;8.93;;
6825;SDS011;3451;52.476;13.316;2022-12-24T05:15:22;14.07;;;9.53;;
6825;SDS011;3451;52.476;13.316;2022-12-24T05:17:49;14.27;;;9.27;;
6825;SDS011;3451;52.476;13.316;2022-12-24T05:20:15;12.80;;;8.57;;
6825;SDS011;3451;52.476;13.316;2022-12-24T05:22:42;14.80;;;9.13;;
6825;SDS011;3451;52.476;13.316;2022-12-24T05:25:28;13.37;;;9.47;;
6825;SDS011;3451;52.476;13.316;2022-12-24T05:28:32;14.83;;;9.23;;
6825;SDS011;3451;52.476;13.316;2022-12-24T05:30:58;16.10;;;9.67;;
6825;SDS011;3451;52.476;13.316;2022-12-24T05:33:24;16.37;;;9.87;;
6825;SDS011;3451;52.476;13.316;2022-12-24T05:35:51;15.60;;;10.27;;
6825;SDS011;3451;52.476;13.316;2022-12-24T05:38:18;15.77;;;9.63;;
6825;SDS011;3451;52.476;13.316;2022-12-24T05:40:45;15.93;;;10.63;;
6825;SDS011;3451;52.476;13.316;2022-12-24T05:43:11;14.43;;;9.13;;
6825;SDS011;3451;52.476;13.316;2022-12-24T05:45:37;14.67;;;9.57;;
6825;SDS011;3451;52.476;13.316;2022-12-24T05:48:04;13.87;;;9.67;;
6825;SDS011;3451;52.476;13.316;2022-12-24T05:50:33;16.43;;;10.67;;
6825;SDS011;3451;52.476;13.316;2022-12-24T05:52:59;16.87;;;10.80;;
6825;SDS011;3451;52.476;13.316;2022-12-24T05:55:26;13.80;;;9.77;;
6825;SDS011;3451;52.476;13.316;2022-12-24T05:57:52;15.40;;;9.93;;
6825;SDS011;3451;52.476;13.316;2022-12-24T06:00:18;16.67;;;10.37;;
6825;SDS011;3451;52.476;13.316;2022-12-24T06:02:45;17.50;;;10.73;;
6825;SDS011;3451;52.476;13.316;2022-12-24T06:05:11;14.20;;;9.87;;
6825;SDS011;3451;52.476;13.316;2022-12-24T06:07:37;20.07;;;10.53;;
6825;SDS011;3451;52.476;13.316;2022-12-24T06:10:04;16.83;;;10.77;;
6825;SDS011;3451;52.476;13.316;2022-12-24T06:12:30;16.63;;;10.70;;
6825;SDS011;3451;52.476;13.316;2022-12-24T06:14:57;18.17;;;10.77;;
6825;SDS011;3451;52.476;13.316;2022-12-24T06:17:23;16.70;;;10.93;;
6825;SDS011;3451;52.476;13.316;2022-12-24T06:19:49;18.60;;;10.90;;
6825;SDS011;3451;52.476;13.316;2022-12-24T06:22:16;18.77;;;10.87;;
6825;SDS011;3451;52.476;13.316;2022-12-24T06:24:42;15.33;;;10.87;;
6825;SDS011;3451;52.476;13.316;2022-12-24T06:27:08;17.80;;;11.30;;
6825;SDS011;3451;52.476;13.316;2022-12-24T06:29:35;16.43;;;11.20;;
6825;SDS011;3451;52.476;13.316;2022-12-24T06:32:02;19.33;;;10.70;;
6825;SDS011;3451;52.476;13.316;2022-12-24T06:34:28;19.93;;;11.87;;
6825;SDS011;3451;52.476;13.316;2022-12-24T06:36:54;18.73;;;11.50;;
6825;SDS011;3451;52.476;13.316;2022-12-24T06:39:21;16.80;;;11.27;;
6825;SDS011;3451;52.476;13.316;2022-12-24T06:41:47;16.40;;;10.83;;
6825;SDS011;3451;52.476;13.316;2022-12-24T06:44:13;16.70;;;11.23;;
6825;SDS011;3451;52.476;13.316;2022-12-24T06:46:39;18.13;;;10.53;;
6825;SDS011;3451;52.476;13.316;2022-12-24T06:49:06;17.70;;;11.00;;
6825;SDS011;3451;52.476;13.316;2022-12-24T06:51:32;16.30;;;11.50;;
6825;SDS011;3451;52.476;13.316;2022-12-24T06:53:58;17.23;;;10.97;;
6825;SDS011;3451;52.476;13.316;2022-12-24T06:56:25;17.17;;;10.40;;
6825;SDS011;3451;52.476;13.316;2022-12-24T06:58:51;17.47;;;10.63;;
6825;SDS011;3451;52.476;13.316;2022-12-24T07:01:18;18.20;;;11.17;;
6825;SDS011;3451;52.476;13.316;2022-12-24T07:03:45;17.87;;;10.97;;
6825;SDS011;3451;52.476;13.316;2022-12-24T07:06:23;17.77;;;10.90;;
6825;SDS011;3451;52.476;13.316;2022-12-24T07:08:49;16.40;;;10.23;;
6825;SDS011;3451;52.476;13.316;2022-12-24T07:11:16;16.23;;;10.33;;
6825;SDS011;3451;52.476;13.316;2022-12-24T07:13:42;16.67;;;10.27;;
6825;SDS011;3451;52.476;13.316;2022-12-24T07:16:08;15.73;;;10.47;;
6825;SDS011;3451;52.476;13.316;2022-12-24T07:18:35;17.47;;;10.47;;
6825;SDS011;3451;52.476;13.316;2022-12-24T07:21:02;17.87;;;10.80;;
6825;SDS011;3451;52.476;13.316;2022-12-24T07:23:29;15.73;;;10.23;;
6825;SDS011;3451;52.476;13.316;2022-12-24T07:25:58;15.97;;;10.10;;
6825;SDS011;3451;52.476;13.316;2022-12-24T07:28:24;18.60;;;11.47;;
6825;SDS011;3451;52.476;13.316;2022-12-24T07:30:54;16.43;;;10.93;;
6825;SDS011;3451;52.476;13.316;2022-12-24T07:33:20;20.77;;;10.83;;
6825;SDS011;3451;52.476;13.316;2022-12-24T07:35:46;19.47;;;11.17;;
6825;SDS011;3451;52.476;13.316;2022-12-24T07:38:20;17.97;;;10.50;;
6825;SDS011;3451;52.476;13.316;2022-12-24T07:40:47;15.93;;;10.37;;
6825;SDS011;3451;52.476;13.316;2022-12-24T07:43:13;18.10;;;10.77;;
6825;SDS011;3451;52.476;13.316;2022-12-24T07:45:39;17.47;;;10.23;;
6825;SDS011;3451;52.476;13.316;2022-12-24T07:48:06;17.57;;;10.20;;
6825;SDS011;3451;52.476;13.316;2022-12-24T07:50:33;17.83;;;9.67;;
6825;SDS011;3451;52.476;13.316;2022-12-24T07:52:59;18.00;;;9.67;;
6825;SDS011;3451;52.476;13.316;2022-12-24T07:55:25;14.70;;;9.63;;
6825;SDS011;3451;52.476;13.316;2022-12-24T07:57:51;16.80;;;10.43;;
6825;SDS011;3451;52.476;13.316;2022-12-24T08:00:18;16.90;;;9.87;;
6825;SDS011;3451;52.476;13.316;2022-12-24T08:02:44;16.80;;;10.40;;
6825;SDS011;3451;52.476;13.316;2022-12-24T08:05:11;16.27;;;10.50;;
6825;SDS011;3451;52.476;13.316;2022-12-24T08:07:37;20.20;;;11.53;;
6825;SDS011;3451;52.476;13.316;2022-12-24T08:10:03;16.73;;;10.17;;
6825;SDS011;3451;52.476;13.316;2022-12-24T08:12:30;20.43;;;10.80;;
6825;SDS011;3451;52.476;13.316;2022-12-24T08:14:56;20.90;;;11.60;;
6825;SDS011;3451;52.476;13.316;2022-12-24T08:17:22;18.00;;;10.80;;
6825;SDS011;3451;52.476;13.316;2022-12-24T08:19:57;17.60;;;10.60;;
6825;SDS011;3451;52.476;13.316;2022-12-24T08:22:23;18.43;;;10.90;;
6825;SDS011;3451;52.476;13.316;2022-12-24T08:24:49;17.57;;;10.47;;
6825;SDS011;3451;52.476;13.316;2022-12-24T08:27:15;17.60;;;10.60;;
6825;SDS011;3451;52.476;13.316;2022-12-24T08:29:42;20.13;;;11.70;;
6825;SDS011;3451;52.476;13.316;2022-12-24T08:32:08;20.30;;;11.77;;
6825;SDS011;3451;52.476;13.316;2022-12-24T08:34:34;17.13;;;10.63;;
6825;SDS011;3451;52.476;13.316;2022-12-24T08:37:01;17.97;;;11.50;;
6825;SDS011;3451;52.476;13.316;2022-12-24T08:39:27;20.83;;;12.13;;
6825;SDS011;3451;52.476;13.316;2022-12-24T08:41:53;19.43;;;11.70;;
6825;SDS011;3451;52.476;13.316;2022-12-24T08:44:19;20.27;;;11.60;;
6825;SDS011;3451;52.476;13.316;2022-12-24T08:46:46;21.53;;;12.00;;
6825;SDS011;3451;52.476;13.316;2022-12-24T08:49:12;20.27;;;11.70;;
6825;SDS011;3451;52.476;13.316;2022-12-24T08:51:38;18.77;;;11.07;;
6825;SDS011;3451;52.476;13.316;2022-12-24T08:54:05;17.97;;;11.23;;
6825;SDS011;3451;52.476;13.316;2022-12-24T08:56:31;19.53;;;11.10;;
6825;SDS011;3451;52.476;13.316;2022-12-24T08:59:00;19.03;;;11.50;;
6825;SDS011;3451;52.476;13.316;2022-12-24T09:01:26;18.10;;;10.77;;
6825;SDS011;3451;52.476;13.316;2022-12-24T09:03:53;18.97;;;11.13;;
6825;SDS011;3451;52.476;13.316;2022-12-24T09:06:19;16.97;;;11.07;;
6825;SDS011;3451;52.476;13.316;2022-12-24T09:08:45;20.07;;;11.57;;
6825;SDS011;3451;52.476;13.316;2022-12-24T09:11:13;17.47;;;11.10;;
6825;SDS011;3451;52.476;13.316;2022-12-24T09:13:39;19.97;;;11.63;;
6825;SDS011;3451;52.476;13.316;2022-12-24T09:16:06;20.03;;;11.53;;
6825;SDS011;3451;52.476;13.316;2022-12-24T09:18:33;20.33;;;11.87;;
6825;SDS011;3451;52.476;13.316;2022-12-24T09:21:00;19.80;;;11.60;;
6825;SDS011;3451;52.476;13.316;2022-12-24T09:23:27;18.53;;;11.33;;
6825;SDS011;3451;52.476;13.316;2022-12-24T09:25:53;20.67;;;11.77;;
6825;SDS011;3451;52.476;13.316;2022-12-24T09:28:19;22.37;;;13.10;;
6825;SDS011;3451;52.476;13.316;2022-12-24T09:30:56;22.93;;;13.27;;
6825;SDS011;3451;52.476;13.316;2022-12-24T09:33:22;19.17;;;11.40;;
6825;SDS011;3451;52.476;13.316;2022-12-24T09:35:49;17.80;;;11.37;;
6825;SDS011;3451;52.476;13.316;2022-12-24T09:38:16;20.10;;;11.37;;
6825;SDS011;3451;52.476;13.316;2022-12-24T09:40:42;17.17;;;10.50;;
6825;SDS011;3451;52.476;13.316;2022-12-24T09:43:18;18.70;;;11.00;;
6825;SDS011;3451;52.476;13.316;2022-12-24T09:45:48;17.07;;;10.73;;
6825;SDS011;3451;52.476;13.316;2022-12-24T09:48:17;16.70;;;10.83;;
6825;SDS011;3451;52.476;13.316;2022-12-24T09:50:48;17.13;;;10.70;;
6825;SDS011;3451;52.476;13.316;2022-12-24T09:56:01;16.77;;;10.20;;
6825;SDS011;3451;52.476;13.316;2022-12-24T09:59:02;18.93;;;11.17;;
6825;SDS011;3451;52.476;13.316;2022-12-24T10:01:21;18.60;;;11.33;;
6825;SDS011;3451;52.476;13.316;2022-12-24T10:03:47;17.97;;;10.80;;
6825;SDS011;3451;52.476;13.316;2022-12-24T10:06:15;17.53;;;10.13;;
6825;SDS011;3451;52.476;13.316;2022-12-24T10:08:51;17.90;;;10.87;;
6825;SDS011;3451;52.476;13.316;2022-12-24T10:11:23;16.23;;;10.17;;
6825;SDS011;3451;52.476;13.316;2022-12-24T10:16:40;14.90;;;10.17;;
6825;SDS011;3451;52.476;13.316;2022-12-24T10:24:09;16.00;;;9.87;;
6825;SDS011;3451;52.476;13.316;2022-12-24T10:26:43;14.27;;;9.40;;
6825;SDS011;3451;52.476;13.316;2022-12-24T10:31:41;14.23;;;8.80;;
6825;SDS011;3451;52.476;13.316;2022-12-24T10:34:14;15.37;;;8.90;;
6825;SDS011;3451;52.476;13.316;2022-12-24T10:36:42;13.97;;;8.83;;
6825;SDS011;3451;52.476;13.316;2022-12-24T10:39:12;14.57;;;8.97;;
6825;SDS011;3451;52.476;13.316;2022-12-24T10:41:41;13.17;;;9.00;;
6825;SDS011;3451;52.476;13.316;2022-12-24T10:44:09;11.50;;;8.40;;
6825;SDS011;3451;52.476;13.316;2022-12-24T10:46:40;12.00;;;8.60;;
6825;SDS011;3451;52.476;13.316;2022-12-24T10:49:10;10.67;;;7.63;;
6825;SDS011;3451;52.476;13.316;2022-12-24T10:51:39;12.33;;;7.63;;
6825;SDS011;3451;52.476;13.316;2022-12-24T10:56:39;9.40;;;6.60;;
6825;SDS011;3451;52.476;13.316;2022-12-24T10:59:08;10.03;;;6.87;;
6825;SDS011;3451;52.476;13.316;2022-12-24T11:01:47;9.43;;;6.53;;
6825;SDS011;3451;52.476;13.316;2022-12-24T11:04:16;7.73;;;5.57;;
6825;SDS011;3451;52.476;13.316;2022-12-24T11:06:53;10.93;;;6.57;;
6825;SDS011;3451;52.476;13.316;2022-12-24T11:09:20;8.63;;;6.17;;
6825;SDS011;3451;52.476;13.316;2022-12-24T11:11:47;10.30;;;6.00;;
6825;SDS011;3451;52.476;13.316;2022-12-24T11:14:15;10.37;;;6.40;;
6825;SDS011;3451;52.476;13.316;2022-12-24T11:16:47;8.97;;;5.90;;
6825;SDS011;3451;52.476;13.316;2022-12-24T11:19:15;8.73;;;5.60;;
6825;SDS011;3451;52.476;13.316;2022-12-24T11:21:41;7.80;;;5.73;;
6825;SDS011;3451;52.476;13.316;2022-12-24T11:24:16;7.37;;;5.47;;
6825;SDS011;3451;52.476;13.316;2022-12-24T11:26:46;7.97;;;5.90;;
6825;SDS011;3451;52.476;13.316;2022-12-24T11:29:20;8.30;;;5.67;;
6825;SDS011;3451;52.476;13.316;2022-12-24T11:31:47;7.67;;;5.53;;
6825;SDS011;3451;52.476;13.316;2022-12-24T11:34:29;6.90;;;5.00;;
6825;SDS011;3451;52.476;13.316;2022-12-24T11:37:09;8.43;;;5.60;;
6825;SDS011;3451;52.476;13.316;2022-12-24T11:39:41;6.53;;;4.87;;
6825;SDS011;3451;52.476;13.316;2022-12-24T11:44:55;6.33;;;4.97;;
6825;SDS011;3451;52.476;13.316;2022-12-24T11:47:32;7.70;;;5.47;;
6825;SDS011;3451;52.476;13.316;2022-12-24T11:53:09;6.23;;;4.80;;
6825;SDS011;3451;52.476;13.316;2022-12-24T11:56:11;6.13;;;4.33;;
6825;SDS011;3451;52.476;13.316;2022-12-24T11:58:42;8.53;;;4.87;;
6825;SDS011;3451;52.476;13.316;2022-12-24T12:01:19;9.30;;;5.40;;
6825;SDS011;3451;52.476;13.316;2022-12-24T12:03:48;6.53;;;4.60;;
6825;SDS011;3451;52.476;13.316;2022-12-24T12:08:55;6.73;;;5.47;;
6825;SDS011;3451;52.476;13.316;2022-12-24T12:11:22;7.47;;;4.83;;
6825;SDS011;3451;52.476;13.316;2022-12-24T12:13:50;5.87;;;4.53;;
6825;SDS011;3451;52.476;13.316;2022-12-24T12:16:20;6.50;;;4.43;;
6825;SDS011;3451;52.476;13.316;2022-12-24T12:18:54;8.17;;;5.00;;
6825;SDS011;3451;52.476;13.316;2022-12-24T12:21:22;8.60;;;5.00;;
6825;SDS011;3451;52.476;13.316;2022-12-24T12:23:54;6.53;;;4.20;;
6825;SDS011;3451;52.476;13.316;2022-12-24T12:26:24;6.17;;;4.63;;
6825;SDS011;3451;52.476;13.316;2022-12-24T12:31:22;5.93;;;4.90;;
6825;SDS011;3451;52.476;13.316;2022-12-24T12:36:25;6.97;;;4.47;;
6825;SDS011;3451;52.476;13.316;2022-12-24T12:38:53;9.87;;;5.07;;
6825;SDS011;3451;52.476;13.316;2022-12-24T12:41:26;9.80;;;5.03;;
6825;SDS011;3451;52.476;13.316;2022-12-24T12:49:22;10.23;;;4.47;;
6825;SDS011;3451;52.476;13.316;2022-12-24T12:57:14;11.40;;;4.27;;
6825;SDS011;3451;52.476;13.316;2022-12-24T12:59:43;11.47;;;4.17;;
6825;SDS011;3451;52.476;13.316;2022-12-24T13:02:26;9.47;;;3.80;;
6825;SDS011;3451;52.476;13.316;2022-12-24T13:05:10;13.53;;;4.13;;
6825;SDS011;3451;52.476;13.316;2022-12-24T13:18:35;9.53;;;4.23;;
6825;SDS011;3451;52.476;13.316;2022-12-24T13:21:03;10.83;;;4.43;;
6825;SDS011;3451;52.476;13.316;2022-12-24T13:23:30;10.27;;;4.10;;
6825;SDS011;3451;52.476;13.316;2022-12-24T13:25:56;11.93;;;3.70;;
6825;SDS011;3451;52.476;13.316;2022-12-24T13:30:50;14.60;;;4.40;;
6825;SDS011;3451;52.476;13.316;2022-12-24T13:36:10;12.43;;;4.37;;
6825;SDS011;3451;52.476;13.316;2022-12-24T13:38:43;11.50;;;5.13;;
6825;SDS011;3451;52.476;13.316;2022-12-24T13:46:45;15.30;;;4.33;;
6825;SDS011;3451;52.476;13.316;2022-12-24T13:49:18;15.10;;;4.30;;
6825;SDS011;3451;52.476;13.316;2022-12-24T13:51:45;14.00;;;4.73;;
6825;SDS011;3451;52.476;13.316;2022-12-24T13:54:12;17.03;;;4.57;;
6825;SDS011;3451;52.476;13.316;2022-12-24T13:56:39;17.73;;;4.57;;
6825;SDS011;3451;52.476;13.316;2022-12-24T13:59:09;16.47;;;4.33;;
6825;SDS011;3451;52.476;13.316;2022-12-24T14:01:37;12.33;;;4.30;;
6825;SDS011;3451;52.476;13.316;2022-12-24T14:04:05;14.30;;;5.13;;
6825;SDS011;3451;52.476;13.316;2022-12-24T14:06:34;15.43;;;4.97;;
6825;SDS011;3451;52.476;13.316;2022-12-24T14:09:08;19.40;;;5.40;;
6825;SDS011;3451;52.476;13.316;2022-12-24T14:14:31;15.47;;;5.17;;
6825;SDS011;3451;52.476;13.316;2022-12-24T14:19:28;23.97;;;5.60;;
6825;SDS011;3451;52.476;13.316;2022-12-24T14:22:04;23.50;;;5.70;;
6825;SDS011;3451;52.476;13.316;2022-12-24T14:24:40;14.77;;;4.73;;
6825;SDS011;3451;52.476;13.316;2022-12-24T14:29:34;18.73;;;5.07;;
6825;SDS011;3451;52.476;13.316;2022-12-24T14:32:14;18.80;;;5.10;;
6825;SDS011;3451;52.476;13.316;2022-12-24T14:34:41;18.30;;;5.13;;
6825;SDS011;3451;52.476;13.316;2022-12-24T14:37:07;17.63;;;5.03;;
6825;SDS011;3451;52.476;13.316;2022-12-24T14:39:35;19.90;;;5.27;;
6825;SDS011;3451;52.476;13.316;2022-12-24T14:42:17;14.90;;;5.00;;
6825;SDS011;3451;52.476;13.316;2022-12-24T14:47:21;19.10;;;5.03;;
6825;SDS011;3451;52.476;13.316;2022-12-24T14:49:59;28.87;;;5.57;;
6825;SDS011;3451;52.476;13.316;2022-12-24T14:55:36;24.40;;;5.33;;
6825;SDS011;3451;52.476;13.316;2022-12-24T15:00:42;20.87;;;6.20;;
6825;SDS011;3451;52.476;13.316;2022-12-24T15:03:12;13.00;;;5.43;;
6825;SDS011;3451;52.476;13.316;2022-12-24T15:05:39;15.87;;;5.63;;
6825;SDS011;3451;52.476;13.316;2022-12-24T15:08:11;13.93;;;4.80;;
6825;SDS011;3451;52.476;13.316;2022-12-24T15:10:38;17.00;;;5.80;;
6825;SDS011;3451;52.476;13.316;2022-12-24T15:13:25;17.97;;;5.57;;
6825;SDS011;3451;52.476;13.316;2022-12-24T15:16:01;17.77;;;4.87;;
6825;SDS011;3451;52.476;13.316;2022-12-24T15:18:28;19.83;;;5.73;;
6825;SDS011;3451;52.476;13.316;2022-12-24T15:20:57;23.17;;;6.93;;
6825;SDS011;3451;52.476;13.316;2022-12-24T15:23:31;20.83;;;6.37;;
6825;SDS011;3451;52.476;13.316;2022-12-24T15:28:42;20.03;;;6.40;;
6825;SDS011;3451;52.476;13.316;2022-12-24T15:31:13;15.47;;;5.40;;
6825;SDS011;3451;52.476;13.316;2022-12-24T15:33:43;21.27;;;6.20;;
6825;SDS011;3451;52.476;13.316;2022-12-24T15:36:09;19.90;;;5.50;;
6825;SDS011;3451;52.476;13.316;2022-12-24T15:38:37;17.40;;;6.33;;
6825;SDS011;3451;52.476;13.316;2022-12-24T15:43:42;21.43;;;5.73;;
6825;SDS011;3451;52.476;13.316;2022-12-24T15:46:09;20.00;;;5.73;;
6825;SDS011;3451;52.476;13.316;2022-12-24T15:48:35;23.10;;;6.37;;
6825;SDS011;3451;52.476;13.316;2022-12-24T15:51:03;23.67;;;6.30;;
6825;SDS011;3451;52.476;13.316;2022-12-24T15:53:35;19.80;;;6.43;;
6825;SDS011;3451;52.476;13.316;2022-12-24T15:56:08;22.77;;;6.10;;
6825;SDS011;3451;52.476;13.316;2022-12-24T15:58:36;19.50;;;6.27;;
6825;SDS011;3451;52.476;13.316;2022-12-24T16:03:29;18.17;;;6.10;;
6825;SDS011;3451;52.476;13.316;2022-12-24T16:06:13;22.13;;;6.77;;
6825;SDS011;3451;52.476;13.316;2022-12-24T16:08:40;26.30;;;7.03;;
6825;SDS011;3451;52.476;13.316;2022-12-24T16:11:11;20.00;;;6.53;;
6825;SDS011;3451;52.476;13.316;2022-12-24T16:13:41;15.47;;;6.27;;
6825;SDS011;3451;52.476;13.316;2022-12-24T16:16:10;28.47;;;7.13;;
6825;SDS011;3451;52.476;13.316;2022-12-24T16:24:45;21.30;;;7.93;;
6825;SDS011;3451;52.476;13.316;2022-12-24T16:27:12;22.37;;;7.83;;
6825;SDS011;3451;52.476;13.316;2022-12-24T16:29:39;24.20;;;8.47;;
6825;SDS011;3451;52.476;13.316;2022-12-24T16:32:05;19.53;;;7.40;;
6825;SDS011;3451;52.476;13.316;2022-12-24T16:34:31;23.63;;;8.20;;
6825;SDS011;3451;52.476;13.316;2022-12-24T16:36:58;19.27;;;8.70;;
6825;SDS011;3451;52.476;13.316;2022-12-24T16:39:28;21.10;;;8.53;;
6825;SDS011;3451;52.476;13.316;2022-12-24T16:41:56;22.67;;;8.50;;
6825;SDS011;3451;52.476;13.316;2022-12-24T16:44:42;26.27;;;9.60;;
6825;SDS011;3451;52.476;13.316;2022-12-24T16:47:12;20.90;;;8.30;;